Time;durP1;ratioP1;P1;durP2;ratioP2;P2;SDS_P1;SDS_P2;PMS_P1;PMS_P2;Temp;Humidity;BMP_temperature;BMP_pressure;BME280_temperature;BME280_humidity;BME280_pressure;Samples;Min_cycle;Max_cycle;Signal;HPM_P1;HPM_P2
2022/09/22 04:01:11;;;;;;;5.73;2.10;;;2.60;96.30;;;;;;5618444;23;20530;-80
2022/09/22 04:03:37;;;;;;;4.03;2.87;;;2.60;96.30;;;;;;4943502;29;20770;-78
2022/09/22 04:06:03;;;;;;;3.47;2.20;;;2.60;96.30;;;;;;4946614;29;20180;-79
2022/09/22 04:08:28;;;;;;;14.17;9.13;;;2.60;96.30;;;;;;4934821;29;20934;-80
2022/09/22 04:10:56;;;;;;;4.67;2.57;;;2.50;96.30;;;;;;4949063;29;20506;-81
2022/09/22 04:13:22;;;;;;;7.23;3.70;;;2.50;96.30;;;;;;4933951;29;20192;-81
2022/09/22 04:15:47;;;;;;;6.53;3.50;;;2.50;96.30;;;;;;4919850;29;20684;-80
2022/09/22 04:18:13;;;;;;;8.07;3.20;;;2.40;96.30;;;;;;4914531;29;20211;-80
2022/09/22 04:20:39;;;;;;;6.27;2.80;;;2.40;96.30;;;;;;4915995;29;20200;-80
2022/09/22 04:23:05;;;;;;;6.13;4.30;;;2.30;96.30;;;;;;4926724;29;20267;-79
2022/09/22 04:25:31;;;;;;;6.03;4.93;;;2.30;96.30;;;;;;4935801;29;20474;-80
2022/09/22 04:27:57;;;;;;;333.93;9.47;;;2.30;96.30;;;;;;4935959;29;20659;-79
2022/09/22 04:30:22;;;;;;;213.80;7.87;;;2.30;96.30;;;;;;4938281;29;20522;-80
2022/09/22 04:32:48;;;;;;;55.60;5.43;;;2.40;96.30;;;;;;4938102;29;20434;-79
2022/09/22 04:35:14;;;;;;;97.67;6.83;;;2.50;96.30;;;;;;4941870;29;20205;-79
2022/09/22 04:37:41;;;;;;;659.13;18.03;;;2.40;96.30;;;;;;4958357;28;20171;-79
2022/09/22 04:40:07;;;;;;;625.20;16.37;;;2.30;96.30;;;;;;4932516;28;20183;-79
2022/09/22 04:42:32;;;;;;;341.07;10.13;;;2.30;96.30;;;;;;4937329;29;20455;-78
2022/09/22 04:45:00;;;;;;;440.17;11.17;;;2.30;96.30;;;;;;4922706;29;20440;-78
2022/09/22 04:47:28;;;;;;;291.30;8.70;;;2.30;96.30;;;;;;4922991;29;20176;-79
2022/09/22 04:49:53;;;;;;;268.43;8.17;;;2.30;96.30;;;;;;4923193;29;20439;-79
2022/09/22 04:52:19;;;;;;;98.60;4.83;;;2.20;96.30;;;;;;4935678;28;20459;-80
2022/09/22 04:54:44;;;;;;;419.63;11.67;;;2.20;96.30;;;;;;4933474;29;20671;-79
2022/09/22 04:57:10;;;;;;;730.90;19.40;;;2.20;96.30;;;;;;4937471;29;20179;-80
2022/09/22 04:59:35;;;;;;;617.93;15.70;;;2.20;96.30;;;;;;4937382;29;20168;-79
2022/09/22 05:02:00;;;;;;;682.53;16.70;;;2.30;96.30;;;;;;4938850;29;20217;-78
2022/09/22 05:04:27;;;;;;;511.97;14.40;;;2.30;96.30;;;;;;4938006;29;20175;-79
2022/09/22 05:06:52;;;;;;;321.27;9.30;;;2.40;96.30;;;;;;4939069;29;20620;-79
2022/09/22 05:09:19;;;;;;;364.70;11.00;;;2.40;96.30;;;;;;4937864;29;20518;-81
2022/09/22 05:11:47;;;;;;;333.23;10.57;;;2.40;96.30;;;;;;4939255;29;20542;-78
2022/09/22 05:14:14;;;;;;;83.13;5.00;;;2.40;96.30;;;;;;4939974;29;21018;-78
2022/09/22 05:16:40;;;;;;;7.37;3.40;;;2.50;96.30;;;;;;4930902;29;20539;-78
2022/09/22 05:19:08;;;;;;;3.07;2.73;;;2.50;96.30;;;;;;4924548;29;20433;-79
2022/09/22 05:21:34;;;;;;;3.10;2.70;;;2.60;96.30;;;;;;4924780;29;20444;-78
2022/09/22 05:24:00;;;;;;;3.40;3.10;;;2.80;96.30;;;;;;4924789;29;20416;-79
2022/09/22 05:26:25;;;;;;;4.17;3.10;;;2.90;96.30;;;;;;4926388;29;20239;-79
2022/09/22 05:28:51;;;;;;;5.07;3.60;;;3.70;96.30;;;;;;4924933;29;20210;-81
2022/09/22 05:31:16;;;;;;;5.30;3.40;;;4.50;96.30;;;;;;4938210;29;20199;-77
2022/09/22 05:33:42;;;;;;;3.37;3.07;;;5.20;96.30;;;;;;4943345;29;20591;-77
2022/09/22 05:36:08;;;;;;;3.40;3.10;;;6.00;96.30;;;;;;4942135;29;20615;-78
2022/09/22 05:38:33;;;;;;;5.83;2.83;;;6.50;96.30;;;;;;4941452;29;20180;-78
2022/09/22 05:40:59;;;;;;;2.50;2.30;;;7.20;96.30;;;;;;4948937;29;20199;-78
2022/09/22 05:43:24;;;;;;;2.10;1.90;;;7.70;96.30;;;;;;4962877;29;20206;-78
2022/09/22 05:45:49;;;;;;;2.70;2.10;;;8.30;96.30;;;;;;4962934;28;20183;-79
2022/09/22 05:48:15;;;;;;;2.60;2.07;;;9.20;96.30;;;;;;4961516;29;20215;-78
2022/09/22 05:50:42;;;;;;;2.60;1.80;;;9.90;96.30;;;;;;4962147;28;20262;-78
2022/09/22 05:53:09;;;;;;;2.37;1.97;;;10.20;96.30;;;;;;4962121;28;20265;-78
2022/09/22 05:55:36;;;;;;;3.93;2.00;;;10.80;96.30;;;;;;4943183;28;20527;-79
2022/09/22 05:58:02;;;;;;;3.70;2.20;;;11.40;96.30;;;;;;4936222;29;20428;-80
2022/09/22 06:00:28;;;;;;;2.30;2.10;;;11.50;96.30;;;;;;4931793;29;20841;-78
2022/09/22 06:02:54;;;;;;;5.00;2.00;;;12.30;96.30;;;;;;4937164;29;20207;-78
2022/09/22 06:05:22;;;;;;;3.03;2.00;;;12.90;96.30;;;;;;4929518;29;20184;-82
2022/09/22 06:07:59;;;;;;;7.80;2.20;;;13.30;96.30;;;;;;4918930;29;20169;-81
2022/09/22 06:13:02;;;;;;;2.33;2.00;;;14.00;96.30;;;;;;5061168;23;20480;-78
2022/09/22 06:15:28;;;;;;;3.03;2.17;;;14.00;96.30;;;;;;4959587;28;20466;-79
2022/09/22 06:17:55;;;;;;;1.70;1.60;;;14.20;96.30;;;;;;4961987;29;20415;-79
2022/09/22 06:20:20;;;;;;;2.37;2.10;;;14.40;96.30;;;;;;4962631;28;20167;-79
2022/09/22 06:22:47;;;;;;;2.83;2.00;;;14.60;96.30;;;;;;4962527;28;20442;-79
2022/09/22 06:25:13;;;;;;;2.50;2.00;;;14.70;96.30;;;;;;4961296;28;20551;-79
2022/09/22 06:27:39;;;;;;;2.90;2.43;;;14.40;96.30;;;;;;4962379;28;20422;-79
2022/09/22 06:30:05;;;;;;;2.50;1.67;;;14.10;96.30;;;;;;4963208;28;20438;-79
2022/09/22 06:32:31;;;;;;;1.97;1.70;;;14.10;96.30;;;;;;4963092;29;20667;-78
2022/09/22 06:35:00;;;;;;;1.97;1.70;;;14.50;96.30;;;;;;4963500;29;20516;-79
2022/09/22 06:37:26;;;;;;;3.93;2.00;;;15.20;96.30;;;;;;4963123;28;20169;-79
2022/09/22 06:39:51;;;;;;;2.33;1.97;;;15.70;96.30;;;;;;4962960;29;20944;-79
2022/09/22 06:42:17;;;;;;;2.90;1.93;;;16.10;96.30;;;;;;4978230;28;20517;-77
2022/09/22 06:44:43;;;;;;;2.30;1.87;;;16.50;96.30;;;;;;4981539;28;20174;-79
2022/09/22 06:47:11;;;;;;;2.50;2.30;;;16.60;96.30;;;;;;4981554;28;20178;-79
2022/09/22 06:49:36;;;;;;;1.77;1.50;;;16.80;96.30;;;;;;4980742;28;20452;-79
2022/09/22 06:52:02;;;;;;;1.90;1.53;;;16.90;96.00;;;;;;4980136;28;20440;-80
2022/09/22 06:54:28;;;;;;;4.03;1.70;;;16.90;96.30;;;;;;4979806;28;20181;-79
2022/09/22 06:56:54;;;;;;;1.97;1.60;;;17.60;94.90;;;;;;4970264;28;20183;-77
2022/09/22 06:59:19;;;;;;;3.10;1.63;;;17.00;95.60;;;;;;4957840;28;20929;-77
2022/09/22 07:01:45;;;;;;;3.17;1.93;;;17.10;96.30;;;;;;4960373;28;20199;-78
2022/09/22 07:04:11;;;;;;;1.60;1.47;;;16.60;96.30;;;;;;4960257;28;20182;-79
2022/09/22 07:06:38;;;;;;;2.87;2.27;;;17.60;95.10;;;;;;4958052;28;20539;-79
2022/09/22 07:09:04;;;;;;;2.47;1.57;;;17.50;94.50;;;;;;4961767;28;20926;-79
2022/09/22 07:11:30;;;;;;;7.13;1.90;;;17.80;96.30;;;;;;4979043;28;20465;-78
2022/09/22 07:13:57;;;;;;;2.23;1.80;;;18.70;92.80;;;;;;4978515;28;20867;-79
2022/09/22 07:16:25;;;;;;;1.63;1.53;;;18.00;94.90;;;;;;4945045;28;20239;-79
2022/09/22 07:18:53;;;;;;;3.90;1.87;;;19.00;93.40;;;;;;4941228;29;20411;-79
2022/09/22 07:21:22;;;;;;;2.80;1.80;;;18.80;93.60;;;;;;4943011;28;20451;-79
2022/09/22 07:23:49;;;;;;;2.20;1.73;;;18.70;93.70;;;;;;4952141;29;20418;-78
2022/09/22 07:26:17;;;;;;;3.33;1.70;;;18.30;94.40;;;;;;4951226;28;20417;-79
2022/09/22 07:28:43;;;;;;;4.40;1.83;;;20.10;90.50;;;;;;4957221;29;20457;-79
2022/09/22 07:31:13;;;;;;;2.80;1.70;;;19.60;91.50;;;;;;4958749;28;20441;-79
2022/09/22 07:33:41;;;;;;;2.37;1.70;;;19.70;91.10;;;;;;4958634;29;20417;-79
2022/09/22 07:36:18;;;;;;;3.93;2.30;;;18.90;93.00;;;;;;4958672;28;20462;-78
2022/09/22 07:38:50;;;;;;;2.23;1.80;;;19.40;92.20;;;;;;4951032;29;20417;-80
2022/09/22 07:41:18;;;;;;;2.20;2.00;;;20.00;92.30;;;;;;4955765;28;20499;-79
2022/09/22 07:43:45;;;;;;;3.00;1.73;;;20.60;89.70;;;;;;4958796;28;20984;-79
2022/09/22 07:46:12;;;;;;;4.60;1.83;;;19.70;91.20;;;;;;4957922;29;20790;-78
2022/09/22 07:51:18;;;;;;;2.10;1.90;;;19.30;92.80;;;;;;4959823;28;20449;-78
2022/09/22 07:53:44;;;;;;;3.03;2.10;;;18.00;95.20;;;;;;4959873;28;20915;-79
2022/09/22 07:56:13;;;;;;;4.43;2.70;;;17.20;96.30;;;;;;4958382;29;20450;-79
2022/09/22 07:58:41;;;;;;;2.30;2.10;;;17.00;96.30;;;;;;4959330;28;20411;-77
2022/09/22 08:01:08;;;;;;;6.17;2.47;;;16.10;96.30;;;;;;4957924;29;21074;-78
2022/09/22 08:03:36;;;;;;;6.53;2.50;;;15.70;96.30;;;;;;4959940;28;20446;-78
2022/09/22 08:06:08;;;;;;;3.40;2.23;;;14.90;96.30;;;;;;4958221;28;20452;-77
2022/09/22 08:08:38;;;;;;;2.63;2.27;;;14.30;96.30;;;;;;4959832;29;20411;-77
2022/09/22 08:11:06;;;;;;;6.33;2.70;;;14.30;96.30;;;;;;4938931;29;20522;-79
2022/09/22 08:13:33;;;;;;;2.33;2.13;;;13.90;96.30;;;;;;4941078;29;20414;-78
2022/09/22 08:15:59;;;;;;;2.20;2.00;;;13.60;96.30;;;;;;4941475;29;20474;-76
2022/09/22 08:18:26;;;;;;;3.03;2.73;;;13.20;96.30;;;;;;4941326;29;20422;-79
2022/09/22 08:20:51;;;;;;;6.13;2.90;;;13.20;96.30;;;;;;4945410;29;20454;-79
2022/09/22 08:23:17;;;;;;;3.40;2.33;;;13.00;96.30;;;;;;4947045;29;20923;-78
2022/09/22 08:25:42;;;;;;;4.60;2.80;;;13.20;96.30;;;;;;4947563;29;20180;-78
2022/09/22 08:28:09;;;;;;;2.33;2.13;;;14.10;96.30;;;;;;4943479;29;20266;-79
2022/09/22 08:30:35;;;;;;;2.87;2.20;;;15.10;96.30;;;;;;4945420;29;20282;-79
2022/09/22 08:33:00;;;;;;;2.60;2.40;;;16.00;96.30;;;;;;4943275;29;20404;-78
2022/09/22 08:35:26;;;;;;;3.07;2.03;;;16.30;96.30;;;;;;4942707;29;20465;-79
2022/09/22 08:37:52;;;;;;;5.27;1.80;;;16.80;96.30;;;;;;4943420;29;20199;-78
2022/09/22 08:40:22;;;;;;;4.23;2.30;;;17.60;96.30;;;;;;4943839;28;20183;-79
2022/09/22 08:42:52;;;;;;;5.60;2.07;;;18.50;96.30;;;;;;4982085;28;20154;-79
2022/09/22 08:45:32;;;;;;;2.17;1.97;;;18.40;96.30;;;;;;4981694;28;20413;-79
2022/09/22 08:53:45;;;;;;;1.67;1.57;;;18.60;96.30;;;;;;4963002;29;20486;-79
2022/09/22 08:56:35;;;;;;;2.57;1.80;;;19.60;94.00;;;;;;4964044;29;20457;-79
2022/09/22 08:59:21;;;;;;;2.87;1.50;;;19.80;91.90;;;;;;4963562;28;20491;-79
2022/09/22 09:02:29;;;;;;;2.20;1.80;;;19.30;94.80;;;;;;4963537;28;20438;-81
2022/09/22 09:05:32;;;;;;;2.03;1.43;;;20.00;93.80;;;;;;4963916;28;20410;-79
2022/09/22 09:08:08;;;;;;;2.17;1.40;;;20.10;91.70;;;;;;4964019;28;20433;-79
2022/09/22 09:10:46;;;;;;;4.93;2.70;;;19.50;91.40;;;;;;4964311;28;20438;-78
2022/09/22 09:13:33;;;;;;;3.13;1.70;;;19.60;90.80;;;;;;4942529;29;20475;-79
2022/09/22 09:16:05;;;;;;;2.73;1.30;;;19.30;90.40;;;;;;4947371;29;20446;-78
2022/09/22 09:18:38;;;;;;;3.97;1.60;;;19.60;91.90;;;;;;4964063;28;20496;-79
2022/09/22 09:21:08;;;;;;;2.93;1.60;;;19.80;94.10;;;;;;4964906;28;20434;-79
2022/09/22 09:23:44;;;;;;;2.90;1.60;;;18.60;92.10;;;;;;4953223;28;20423;-79
2022/09/22 09:26:12;;;;;;;2.03;1.30;;;20.10;91.90;;;;;;4942937;29;20415;-79
2022/09/22 09:28:41;;;;;;;3.83;1.50;;;20.00;92.10;;;;;;4943719;29;20479;-78
2022/09/22 09:31:27;;;;;;;1.17;1.07;;;20.90;92.60;;;;;;4943048;29;20470;-79
2022/09/22 09:34:04;;;;;;;1.60;0.90;;;20.80;87.10;;;;;;4942953;29;20423;-79
2022/09/22 09:36:38;;;;;;;2.73;1.00;;;21.10;83.80;;;;;;4944440;29;20451;-80
2022/09/22 09:39:30;;;;;;;2.40;1.53;;;19.80;88.20;;;;;;4958498;29;20423;-79
2022/09/22 09:41:56;;;;;;;1.40;1.10;;;18.90;92.80;;;;;;4978580;28;20452;-79
2022/09/22 09:44:31;;;;;;;1.50;1.10;;;19.20;92.10;;;;;;4984020;28;20911;-79
2022/09/22 09:46:56;;;;;;;1.37;0.80;;;18.60;91.80;;;;;;4966009;28;20426;-79
2022/09/22 09:49:23;;;;;;;1.37;0.90;;;18.50;90.90;;;;;;4963224;28;20767;-79
2022/09/22 09:51:57;;;;;;;1.00;0.90;;;19.40;91.60;;;;;;4952951;29;20213;-80
2022/09/22 09:54:24;;;;;;;1.63;1.10;;;19.80;89.40;;;;;;4961802;29;20576;-82
2022/09/22 09:57:09;;;;;;;2.40;0.93;;;19.80;89.90;;;;;;4961634;28;20474;-81
2022/09/22 10:02:35;;;;;;;1.13;1.03;;;21.00;87.10;;;;;;4943847;29;20506;-77
2022/09/22 10:05:04;;;;;;;2.07;1.10;;;20.10;91.90;;;;;;4937960;29;20395;-79
2022/09/22 10:07:43;;;;;;;3.00;1.03;;;19.10;86.60;;;;;;4938462;29;20426;-77
2022/09/22 10:10:34;;;;;;;6.60;1.00;;;18.20;88.80;;;;;;4956446;29;20462;-77
2022/09/22 10:13:02;;;;;;;1.50;0.97;;;19.20;90.70;;;;;;4947186;28;20431;-79
2022/09/22 10:15:33;;;;;;;1.43;0.70;;;19.50;91.30;;;;;;4937777;29;20881;-76
2022/09/22 10:18:00;;;;;;;2.10;0.90;;;20.20;93.00;;;;;;4937141;29;20411;-77
2022/09/22 10:20:31;;;;;;;1.43;0.70;;;21.10;87.80;;;;;;4936237;29;20420;-77
2022/09/22 10:23:19;;;;;;;1.23;0.70;;;20.60;90.30;;;;;;4937767;29;20970;-77
2022/09/22 10:25:45;;;;;;;1.20;0.80;;;20.30;85.00;;;;;;4937669;29;20419;-77
2022/09/22 10:28:13;;;;;;;3.43;1.00;;;20.20;85.60;;;;;;4937104;29;20903;-77
2022/09/22 10:30:41;;;;;;;3.33;0.70;;;19.40;84.90;;;;;;4937018;29;20206;-77
2022/09/22 10:33:12;;;;;;;1.43;0.80;;;19.80;89.60;;;;;;4935636;29;20432;-77
2022/09/22 10:35:38;;;;;;;1.50;0.80;;;19.50;83.20;;;;;;4937916;29;20982;-77
2022/09/22 10:38:27;;;;;;;1.40;0.90;;;19.30;84.90;;;;;;4936893;29;20416;-77
2022/09/22 10:41:06;;;;;;;1.10;0.80;;;19.20;84.80;;;;;;4945835;28;20593;-77
2022/09/22 10:43:47;;;;;;;9.60;0.63;;;19.00;83.90;;;;;;4958855;28;20453;-77
2022/09/22 10:46:36;;;;;;;1.57;0.60;;;19.00;91.40;;;;;;4936414;29;20415;-77
2022/09/22 10:49:35;;;;;;;1.83;0.60;;;18.60;86.10;;;;;;4936231;29;20453;-77
2022/09/22 10:52:10;;;;;;;1.30;1.00;;;18.80;86.20;;;;;;4936729;29;20529;-78
2022/09/22 10:55:17;;;;;;;1.77;0.90;;;18.90;89.30;;;;;;4936747;29;20845;-77
2022/09/22 10:57:42;;;;;;;4.03;0.87;;;19.20;90.20;;;;;;4937559;29;20439;-77
2022/09/22 11:00:20;;;;;;;3.23;0.80;;;19.90;91.70;;;;;;4935656;28;20439;-79
2022/09/22 11:03:25;;;;;;;1.00;0.70;;;19.40;88.50;;;;;;4935099;28;20189;-79
2022/09/22 11:12:32;;;;;;;1.57;1.00;;;19.80;86.10;;;;;;4975266;28;20499;-79
2022/09/22 11:15:00;;;;;;;2.90;0.90;;;20.20;88.60;;;;;;4974674;28;21012;-77
2022/09/22 11:17:53;;;;;;;1.10;0.80;;;20.50;89.70;;;;;;4974811;28;20457;-77
2022/09/22 11:20:35;;;;;;;1.73;0.60;;;20.10;84.50;;;;;;4963825;28;20614;-77
2022/09/22 11:23:25;;;;;;;1.20;1.00;;;18.60;82.60;;;;;;4953406;28;20997;-78
2022/09/22 11:26:24;;;;;;;1.43;0.70;;;17.70;86.20;;;;;;4948365;29;20427;-78
2022/09/22 11:29:05;;;;;;;2.70;1.00;;;16.70;88.60;;;;;;4934703;29;20446;-77
2022/09/22 11:31:42;;;;;;;1.30;0.70;;;16.30;89.60;;;;;;4937043;29;20435;-79
2022/09/22 11:34:25;;;;;;;5.10;0.80;;;16.40;92.60;;;;;;4936793;29;20808;-77
2022/09/22 11:37:24;;;;;;;1.87;0.90;;;16.50;85.00;;;;;;4941482;29;20606;-77
2022/09/22 11:39:50;;;;;;;1.57;0.90;;;16.80;86.20;;;;;;4932614;29;20438;-77
2022/09/22 11:42:49;;;;;;;2.07;0.80;;;17.80;94.40;;;;;;4964997;28;20446;-78
2022/09/22 11:45:30;;;;;;;2.23;0.90;;;18.50;90.70;;;;;;4954657;29;20179;-79
2022/09/22 11:48:05;;;;;;;0.90;0.70;;;17.70;90.40;;;;;;4955643;28;20406;-77
2022/09/22 11:50:38;;;;;;;1.30;0.70;;;16.70;92.50;;;;;;4957102;28;20577;-78
2022/09/22 11:53:18;;;;;;;2.13;0.70;;;15.80;96.30;;;;;;4956590;28;20902;-78
2022/09/22 11:56:13;;;;;;;1.00;0.70;;;15.70;96.30;;;;;;4944363;29;20549;-79
2022/09/22 11:58:41;;;;;;;1.20;0.80;;;15.60;96.30;;;;;;4938980;29;20411;-77
2022/09/22 12:01:18;;;;;;;1.67;1.33;;;15.30;95.50;;;;;;4938531;29;20442;-78
2022/09/22 12:04:20;;;;;;;1.20;0.60;;;15.70;96.30;;;;;;4937449;28;20451;-77
2022/09/22 12:06:50;;;;;;;1.23;0.83;;;15.80;96.30;;;;;;4935075;29;20434;-79
2022/09/22 12:09:31;;;;;;;2.00;0.90;;;16.40;94.30;;;;;;4935250;29;20415;-77
2022/09/22 16:13:56;;;;;;;2.30;0.50;;;12.30;96.30;;;;;;4934874;29;20543;-78
2022/09/22 16:16:22;;;;;;;2.80;0.83;;;12.20;96.30;;;;;;4934384;29;20473;-78
2022/09/22 16:18:48;;;;;;;1.10;0.70;;;12.10;96.30;;;;;;4926608;29;20872;-77
2022/09/22 16:21:18;;;;;;;6.30;1.03;;;11.90;96.30;;;;;;4934758;29;20322;-80
2022/09/22 16:23:44;;;;;;;1.93;0.80;;;11.60;96.30;;;;;;4932322;29;20422;-78
2022/09/22 16:26:09;;;;;;;3.40;0.67;;;11.40;96.30;;;;;;4916084;29;20416;-77
2022/09/22 16:28:34;;;;;;;1.20;0.80;;;11.10;96.30;;;;;;4915327;29;20192;-79
2022/09/22 16:31:05;;;;;;;1.60;1.00;;;10.90;96.30;;;;;;4916029;29;20200;-78
2022/09/22 16:33:31;;;;;;;5.53;0.97;;;10.70;96.30;;;;;;4916172;29;20188;-78
2022/09/22 16:35:57;;;;;;;2.63;1.17;;;10.50;96.30;;;;;;4914719;29;20464;-78
2022/09/22 16:38:22;;;;;;;1.83;1.20;;;10.30;96.30;;;;;;4931475;29;20465;-79
2022/09/22 16:41:19;;;;;;;2.03;1.47;;;10.10;96.30;;;;;;4941991;29;20206;-78
2022/09/22 16:43:45;;;;;;;3.23;1.20;;;10.00;96.30;;;;;;4919135;29;20192;-79
2022/09/22 16:46:25;;;;;;;3.50;1.10;;;9.80;96.30;;;;;;4933988;29;20427;-78
2022/09/22 16:48:57;;;;;;;1.73;1.20;;;9.60;96.30;;;;;;4956681;28;20167;-78
2022/09/22 16:51:23;;;;;;;1.37;0.80;;;9.40;96.30;;;;;;4966114;28;20546;-81
2022/09/22 16:53:51;;;;;;;2.70;1.00;;;9.20;96.30;;;;;;4938239;29;20467;-81
2022/09/22 16:56:28;;;;;;;1.97;0.80;;;9.10;96.30;;;;;;4936875;29;20466;-80
2022/09/22 16:58:54;;;;;;;1.37;1.00;;;9.00;96.30;;;;;;4938110;29;20406;-78
2022/09/22 17:01:22;;;;;;;1.53;1.10;;;8.80;96.30;;;;;;4938168;29;20431;-78
2022/09/22 17:03:48;;;;;;;2.33;1.00;;;8.70;96.30;;;;;;4938071;29;20186;-80
2022/09/22 17:06:16;;;;;;;1.17;1.00;;;8.60;96.30;;;;;;4938133;28;20422;-78
2022/09/22 17:08:44;;;;;;;3.13;1.03;;;8.40;96.30;;;;;;4937589;29;20423;-81
2022/09/22 17:11:13;;;;;;;5.17;1.20;;;8.40;96.30;;;;;;4938112;29;20463;-78
2022/09/22 17:13:42;;;;;;;3.20;1.00;;;8.40;96.30;;;;;;4936785;29;20426;-79
2022/09/22 17:16:21;;;;;;;1.70;1.03;;;8.30;96.30;;;;;;4936732;29;20534;-80
2022/09/22 17:18:50;;;;;;;2.33;1.40;;;8.10;96.30;;;;;;4937075;29;20418;-79
2022/09/22 17:21:20;;;;;;;3.20;1.50;;;8.10;96.30;;;;;;4935422;29;20499;-80
2022/09/22 17:23:47;;;;;;;1.40;0.97;;;8.00;96.30;;;;;;4934580;29;20422;-81
2022/09/22 17:26:13;;;;;;;3.67;1.20;;;7.90;96.30;;;;;;4936139;29;20441;-80
2022/09/22 17:28:39;;;;;;;1.93;0.90;;;7.70;96.30;;;;;;4937622;29;20431;-81
2022/09/22 17:31:06;;;;;;;3.63;1.00;;;7.60;96.30;;;;;;4937467;29;20498;-80
2022/09/22 17:33:35;;;;;;;1.80;1.10;;;7.50;96.30;;;;;;4937828;29;20900;-81
2022/09/22 17:36:03;;;;;;;1.27;0.80;;;7.30;96.30;;;;;;4925696;29;20475;-83
2022/09/22 17:38:30;;;;;;;5.63;1.10;;;7.20;96.30;;;;;;4952643;28;20915;-80
2022/09/22 17:41:06;;;;;;;5.60;1.50;;;7.00;96.30;;;;;;4941651;29;20459;-80
2022/09/22 17:43:38;;;;;;;5.20;3.07;;;7.00;96.30;;;;;;4939710;28;20430;-80
2022/09/22 17:46:05;;;;;;;6.03;2.93;;;7.00;96.30;;;;;;4957125;29;20418;-80
2022/09/22 17:57:16;;;;;;;6.90;4.10;;;6.70;96.30;;;;;;4942535;29;20486;-79
2022/09/22 17:59:42;;;;;;;4.07;3.37;;;6.50;96.30;;;;;;4937240;29;20396;-80
2022/09/22 18:02:10;;;;;;;6.80;2.07;;;6.40;96.30;;;;;;4937121;29;20464;-80
2022/09/22 18:04:37;;;;;;;6.20;2.90;;;6.40;96.30;;;;;;4934230;28;20175;-80
2022/09/22 18:07:05;;;;;;;10.30;6.90;;;6.40;96.30;;;;;;4936497;29;20952;-78
2022/09/22 18:09:35;;;;;;;13.63;8.33;;;6.40;96.30;;;;;;4937822;29;20439;-78
2022/09/22 19:21:55;;;;;;;5.43;4.23;;;4.90;96.30;;;;;;5596500;23;20502;-81
2022/09/22 19:24:22;;;;;;;7.60;4.60;;;4.90;96.30;;;;;;4956850;29;20433;-81
2022/09/22 19:26:51;;;;;;;7.60;5.20;;;4.80;96.30;;;;;;4954393;28;20182;-82
2022/09/22 19:29:17;;;;;;;5.93;4.40;;;4.80;96.30;;;;;;4946645;29;20509;-82
2022/09/22 19:31:42;;;;;;;6.20;4.00;;;4.80;96.30;;;;;;4956228;29;20442;-82
2022/09/22 19:34:09;;;;;;;4.87;3.30;;;4.90;96.30;;;;;;4956876;29;20518;-82
2022/09/22 19:36:35;;;;;;;4.77;3.60;;;4.90;96.30;;;;;;4956385;29;20203;-82
2022/09/22 19:39:01;;;;;;;4.20;3.40;;;4.90;96.30;;;;;;4956124;29;20425;-81
2022/09/22 19:41:27;;;;;;;6.00;3.80;;;4.90;96.30;;;;;;4957286;28;20434;-81
2022/09/22 19:43:53;;;;;;;9.23;3.27;;;4.90;96.30;;;;;;4952994;29;20542;-82
2022/09/22 19:46:19;;;;;;;3.97;3.43;;;4.80;96.30;;;;;;4955809;29;20186;-82
2022/09/22 19:48:44;;;;;;;10.43;3.67;;;4.90;96.30;;;;;;4955863;28;20505;-82
2022/09/22 19:51:10;;;;;;;3.50;3.20;;;4.90;96.30;;;;;;4937990;29;20467;-80
2022/09/22 19:53:36;;;;;;;6.20;3.53;;;4.80;96.30;;;;;;4938264;29;20179;-81
2022/09/22 19:56:03;;;;;;;4.10;3.07;;;4.70;96.30;;;;;;4936956;29;20210;-81
2022/09/22 19:58:29;;;;;;;9.03;3.83;;;4.70;96.30;;;;;;4936559;29;20179;-81
2022/09/22 20:00:54;;;;;;;5.00;3.90;;;4.70;96.30;;;;;;4937164;29;20451;-81
2022/09/22 20:03:21;;;;;;;4.30;3.50;;;4.70;96.30;;;;;;4957561;28;20218;-81
2022/09/22 20:05:46;;;;;;;5.67;3.80;;;4.70;96.30;;;;;;4955690;29;20918;-81
2022/09/22 20:08:15;;;;;;;4.70;3.20;;;4.60;96.30;;;;;;4956386;28;20225;-81
2022/09/22 20:10:45;;;;;;;3.70;2.87;;;4.60;96.30;;;;;;4956530;28;20234;-81
2022/09/22 20:15:59;;;;;;;3.53;2.63;;;4.60;96.30;;;;;;4939569;29;20538;-81
2022/09/22 20:18:26;;;;;;;3.93;3.03;;;4.70;96.30;;;;;;4935807;29;20442;-81
2022/09/22 20:20:52;;;;;;;3.07;2.47;;;4.60;96.30;;;;;;4935711;29;20466;-82
2022/09/22 20:23:20;;;;;;;3.30;2.70;;;4.50;96.30;;;;;;4937492;29;20426;-81
2022/09/22 20:25:46;;;;;;;2.70;2.43;;;4.40;96.30;;;;;;4937625;29;20466;-81
2022/09/22 20:28:12;;;;;;;3.67;3.00;;;4.30;96.30;;;;;;4935557;29;20434;-81
2022/09/22 20:30:37;;;;;;;2.73;2.43;;;4.30;96.30;;;;;;4936027;29;20447;-81
2022/09/22 20:33:03;;;;;;;5.73;2.40;;;4.10;96.30;;;;;;4938597;29;20591;-80
2022/09/22 20:35:29;;;;;;;6.77;2.30;;;4.00;96.30;;;;;;4935936;29;20679;-81
2022/09/22 20:37:58;;;;;;;3.00;2.70;;;4.00;96.30;;;;;;4936511;29;20178;-81
2022/09/22 20:40:25;;;;;;;2.07;1.83;;;3.90;96.30;;;;;;4936573;29;20731;-81
2022/09/22 20:42:53;;;;;;;3.87;2.57;;;4.00;96.30;;;;;;4954814;29;20422;-81
2022/09/22 20:45:21;;;;;;;5.13;2.20;;;4.10;96.30;;;;;;4956151;29;20441;-79
2022/09/22 20:47:47;;;;;;;2.60;2.00;;;4.20;96.30;;;;;;4955700;28;20398;-79
2022/09/22 20:50:16;;;;;;;3.87;2.43;;;4.30;96.30;;;;;;4954060;28;20402;-79
2022/09/22 20:52:41;;;;;;;2.87;2.00;;;4.30;96.30;;;;;;4952658;29;20871;-80
2022/09/22 20:55:11;;;;;;;5.83;2.43;;;4.30;96.30;;;;;;4948332;29;20450;-78
2022/09/22 20:57:37;;;;;;;2.90;2.40;;;4.20;96.30;;;;;;4953929;28;20616;-80
2022/09/22 21:00:03;;;;;;;4.33;3.23;;;4.20;96.30;;;;;;4952627;29;20427;-79
2022/09/22 21:02:29;;;;;;;3.00;2.60;;;4.20;96.30;;;;;;4952604;29;20529;-78
2022/09/22 21:04:55;;;;;;;4.00;2.90;;;4.20;96.30;;;;;;4953924;28;20167;-79
2022/09/22 21:07:21;;;;;;;3.70;2.80;;;4.10;96.30;;;;;;4954471;28;20410;-78
2022/09/22 21:12:31;;;;;;;5.87;3.43;;;3.90;96.30;;;;;;4953356;29;20738;-78
2022/09/22 21:14:57;;;;;;;4.40;2.10;;;3.80;96.30;;;;;;4953422;28;20436;-78
2022/09/22 21:17:23;;;;;;;4.07;2.50;;;3.80;96.30;;;;;;4952422;29;20175;-78
2022/09/22 21:19:49;;;;;;;2.90;2.33;;;3.80;96.30;;;;;;4953493;28;20966;-79
2022/09/22 21:22:15;;;;;;;7.30;2.70;;;3.80;96.30;;;;;;4952118;28;20454;-78
2022/09/22 21:24:44;;;;;;;3.50;2.80;;;3.80;96.30;;;;;;4953602;28;20171;-78
2022/09/22 21:27:11;;;;;;;4.77;2.90;;;3.70;96.30;;;;;;4954879;28;20183;-78
2022/09/22 21:29:37;;;;;;;3.60;2.60;;;3.60;96.30;;;;;;4956853;28;20914;-80
2022/09/22 21:32:03;;;;;;;3.73;2.83;;;3.50;96.30;;;;;;4955612;29;20497;-78
2022/09/22 21:34:28;;;;;;;3.83;2.83;;;3.50;96.30;;;;;;4957071;28;20183;-78
2022/09/22 21:36:54;;;;;;;7.57;2.63;;;3.40;96.30;;;;;;4955384;28;20206;-79
2022/09/22 21:39:20;;;;;;;3.47;2.43;;;3.40;96.30;;;;;;4956818;28;20322;-81
2022/09/22 21:41:45;;;;;;;2.70;2.30;;;3.50;96.30;;;;;;4955364;29;20238;-81
2022/09/22 21:44:11;;;;;;;4.67;3.03;;;3.40;96.30;;;;;;4956884;28;20486;-79
2022/09/22 21:46:39;;;;;;;2.63;2.40;;;3.40;96.30;;;;;;4955891;29;20186;-81
2022/09/22 21:49:05;;;;;;;7.43;3.97;;;3.50;96.30;;;;;;4955495;29;20183;-79
2022/09/22 21:51:33;;;;;;;2.90;2.37;;;3.50;96.30;;;;;;4956937;28;20439;-80
2022/09/22 21:54:01;;;;;;;3.73;2.70;;;3.50;96.30;;;;;;4957106;28;20481;-79
2022/09/22 21:56:28;;;;;;;3.70;2.67;;;3.60;96.30;;;;;;4956682;28;20831;-79
2022/09/22 21:58:55;;;;;;;2.30;2.10;;;3.50;96.30;;;;;;4955388;29;20935;-81
2022/09/22 22:01:26;;;;;;;3.20;2.57;;;3.50;96.30;;;;;;4955573;29;20514;-79
2022/09/22 22:03:54;;;;;;;3.23;2.27;;;3.50;96.30;;;;;;4956668;28;20426;-79
2022/09/22 22:06:28;;;;;;;3.27;2.10;;;3.40;96.30;;;;;;4956519;28;20927;-79
2022/09/22 22:09:03;;;;;;;2.93;2.20;;;3.40;96.30;;;;;;4952896;29;20422;-79
2022/09/22 22:11:32;;;;;;;2.30;1.80;;;3.40;96.30;;;;;;4936419;29;20450;-79
2022/09/22 22:13:59;;;;;;;5.03;2.17;;;3.40;96.30;;;;;;4936579;29;20801;-82
2022/09/22 22:16:30;;;;;;;3.20;1.80;;;3.40;96.30;;;;;;4937763;29;20506;-82
2022/09/22 22:18:56;;;;;;;2.60;2.40;;;3.30;96.30;;;;;;4938411;29;20416;-82
2022/09/22 22:21:23;;;;;;;2.70;2.03;;;3.30;96.30;;;;;;4937755;29;20459;-81
2022/09/22 22:23:51;;;;;;;5.83;2.10;;;3.30;96.30;;;;;;4937873;29;20214;-81
2022/09/22 22:26:22;;;;;;;3.03;1.90;;;3.30;96.30;;;;;;4938146;29;20432;-81
2022/09/22 22:28:48;;;;;;;2.07;1.87;;;3.20;96.30;;;;;;4938985;29;20423;-82
2022/09/22 22:31:17;;;;;;;6.07;3.50;;;3.10;96.30;;;;;;4938818;29;21079;-82
2022/09/22 22:33:43;;;;;;;4.43;3.47;;;3.00;96.30;;;;;;4937158;29;20434;-82
2022/09/22 22:36:12;;;;;;;5.43;4.10;;;3.00;96.30;;;;;;4937275;29;20469;-81
2022/09/22 22:38:38;;;;;;;3.83;3.30;;;3.00;96.30;;;;;;4936896;28;20455;-82
2022/09/22 22:41:06;;;;;;;3.57;2.70;;;2.90;96.30;;;;;;4944166;29;20473;-82
2022/09/22 22:43:32;;;;;;;3.40;2.23;;;2.90;96.30;;;;;;4956110;28;20426;-82
2022/09/22 22:45:58;;;;;;;3.00;2.60;;;2.90;96.30;;;;;;4956111;28;20781;-82
2022/09/22 22:48:25;;;;;;;2.70;2.23;;;2.90;96.30;;;;;;4955971;28;20178;-81
2022/09/22 22:50:52;;;;;;;4.57;2.50;;;2.90;96.30;;;;;;4954666;29;20209;-82